Strait of Georgia - north of Nanaimo: Past 24 Hour Conditions

 

South Moresby - 46147

09:00 AM PST 20 December 2014Buoy position: 51.83N 131.23W
Disclaimer

This table is a summary of hourly weather conditions for the past 24 hours.
Please note that these observations might not always be representative of weather conditions over their associated marine area.

Date / Time
(PST)
Wind(knots) Wave height(m) Wave period(s) Pressure(kPa) Air tempC) Water tempC)
20 December 2014
9:00 SW 18 gust 21 5.8 11.0 98.4 10 10
8:00 SW 18 gust 23 6.8 11.0 98.3 11 10
7:00 SSW 18 gust 23 6.5 10.0 98.3 10 10
6:00 SSW 19 gust 23 6.7 11.0 98.2 10 10
5:00 SSW 19 gust 25 7.0 11.0 98.2 10 10
4:00 SSW 21 gust 27 6.5 10.0 98.2 10 10
3:00 S 19 gust 23 7.5 11.0 98.3 10 10
2:00 SSE 29 gust 39 6.8 10.0 98.2 10 10
1:00 SSE 31 gust 41 6.9 16.0 98.3 9 10
0:00 SSE 33 gust 43 6.7 17.0 98.5 9 10
19 December 2014
23:00 SSE 33 gust 41 6.4 17.0 98.6 9 10
22:00 SSE 29 gust 39 7.0 14.0 98.8 9 10
21:00 SSE 27 gust 35 7.0 16.0 98.9 9 10
20:00 SSE 25 gust 35 7.8 16.0 99.0 9 10
19:00 SSE 25 gust 31 8.7 15.0 99.1 9 10
18:00 SSE 23 gust 29 8.2 16.0 99.3 9 10
17:00 SSE 23 gust 29 8.1 17.0 99.4 9 10
16:00 S 21 gust 27 8.7 16.0 99.4 10 10
15:00 S 23 gust 29 7.0 16.0 99.4 10 10
14:00 SSW 19 gust 25 7.2 17.0 99.4 9 10
13:00 SSW 23 gust 29 6.8 15.0 99.4 10 10
12:00 SSW 23 gust 29 6.2 17.0 99.4 9 10
11:00 N/A N/A N/A N/A N/A N/A
10:00 SSW 18 gust 35 5.9 18.0 99.3 9 10
9:00 S 23 gust 31 6.7 20.0 99.3 10 10
Map of Pacific - South Coast marine weather areas Tsawwassen Ferry Terminal South Nomad - 46036 Sentry Shoal - 46131 South Brooks - 46132 Halibut Bank - 46146 South Moresby - 46147 South Hecate Strait - 46185 West Sea Otter - 46204 La Perouse Bank - 46206 East Dellwood - 46207 Discovery Island Esquimalt Harbour Kelp Reefs Malahat Race Rocks Lightstation Saturna Island Sheringham Point University of Victoria Victoria Gonzales Victoria Int'l Airport Ballenas Islands Campbell River Airport Comox Airport Entrance Island Fanny Island Nanaimo Airport Port Hardy Airport Sisters Islets Estevan Point Sartine Island Solander Island Tofino Airport Grief Point Powell River Airport Sechelt Cape St.James Bella Bella Airport Bella Coola Airport Cathedral Point Herbert Island Point Atkinson Sand Heads Lightstation Vancouver Harbour Vancouver Int'l Airport West Vancouver Port Alberni Howe Sound - Pam Rocks Squamish Airport
Legend:
buoy Buoy
land station Land Station

Pacific - South Coast Area

Another Region

What we are doing

Date modified: